createdAt,value
2022-10-13T00:00:49.223Z,29.10
2022-10-13T00:03:37.819Z,28.80
2022-10-13T00:06:11.412Z,29.90
2022-10-13T00:08:46.813Z,27.90
2022-10-13T00:11:20.846Z,29.40
2022-10-13T00:13:56.962Z,30.60
2022-10-13T00:16:30.648Z,28.50
2022-10-13T00:19:03.233Z,28.60
2022-10-13T00:21:35.530Z,30.30
2022-10-13T00:24:11.083Z,29.60
2022-10-13T00:26:44.004Z,30.40
2022-10-13T00:29:16.818Z,29.40
2022-10-13T00:31:48.487Z,31.10
2022-10-13T00:34:20.087Z,31.50
2022-10-13T00:36:51.748Z,28.90
2022-10-13T00:39:23.785Z,28.50
2022-10-13T00:41:58.650Z,21.50
2022-10-13T00:44:59.726Z,30.80
2022-10-13T00:47:35.778Z,27.50
2022-10-13T00:50:13.059Z,28.70
2022-10-13T00:52:45.932Z,29.20
2022-10-13T00:55:21.783Z,29.70
2022-10-13T00:57:56.109Z,28.80
2022-10-13T01:00:35.866Z,30.90
2022-10-13T01:03:07.896Z,29.20
2022-10-13T01:05:41.800Z,23.10
2022-10-13T01:08:15.080Z,28.40
2022-10-13T01:10:59.940Z,28.70
2022-10-13T01:13:41.849Z,28.90
2022-10-13T01:16:19.118Z,30.40
2022-10-13T01:18:59.307Z,29.50
2022-10-13T01:21:42.793Z,31.60
2022-10-13T01:24:48.142Z,30.10
2022-10-13T01:27:52.860Z,29.10
2022-10-13T01:30:25.421Z,30.10
2022-10-13T01:33:11.390Z,30.80
2022-10-13T01:35:57.929Z,30.60
2022-10-13T01:38:40.477Z,30.20
2022-10-13T01:41:20.466Z,29.90
2022-10-13T01:43:56.545Z,32.20
2022-10-13T01:46:32.170Z,29.70
2022-10-13T01:49:10.583Z,28.50
2022-10-13T01:51:44.634Z,29.40
2022-10-13T01:54:17.186Z,30.50
2022-10-13T01:56:57.173Z,31.80
2022-10-13T01:59:36.174Z,39.00
2022-10-13T02:02:18.341Z,30.30
2022-10-13T02:04:58.558Z,31.80
2022-10-13T02:07:37.488Z,31.60
2022-10-13T02:10:15.713Z,31.90
2022-10-13T02:12:54.562Z,30.60
2022-10-13T02:15:31.414Z,32.00
2022-10-13T02:18:07.896Z,32.90
2022-10-13T02:20:41.400Z,31.70
2022-10-13T02:23:16.641Z,31.40
2022-10-13T02:25:51.696Z,33.00
2022-10-13T02:28:25.246Z,34.60
2022-10-13T02:30:58.009Z,32.40
2022-10-13T02:33:30.604Z,32.40
2022-10-13T02:36:03.317Z,33.80
2022-10-13T02:38:35.750Z,32.90
2022-10-13T02:41:08.857Z,35.20
2022-10-13T02:43:40.922Z,32.90
2022-10-13T02:46:13.197Z,33.10
2022-10-13T02:48:46.414Z,33.80
2022-10-13T02:51:18.668Z,32.30
2022-10-13T02:53:51.025Z,33.20
2022-10-13T02:56:23.147Z,34.40
2022-10-13T02:58:54.829Z,34.90
2022-10-13T03:01:27.122Z,34.20
2022-10-13T03:04:00.678Z,33.40
2022-10-13T03:06:32.463Z,33.80
2022-10-13T03:09:04.777Z,33.50
2022-10-13T03:11:36.570Z,33.30
2022-10-13T03:14:09.884Z,25.50
2022-10-13T03:16:42.443Z,31.90
2022-10-13T03:19:15.305Z,37.00
2022-10-13T03:21:47.498Z,36.30
2022-10-13T03:24:19.857Z,33.90
2022-10-13T03:26:54.536Z,34.70
2022-10-13T03:29:27.024Z,32.60
2022-10-13T03:31:59.639Z,35.60
2022-10-13T03:37:04.849Z,34.50
2022-10-13T03:39:39.900Z,34.20
2022-10-13T03:42:13.917Z,32.30
2022-10-13T03:44:46.134Z,34.60
2022-10-13T03:47:17.785Z,33.60
2022-10-13T03:49:49.452Z,33.90
2022-10-13T03:52:22.178Z,33.30
2022-10-13T03:54:54.785Z,35.50
2022-10-13T03:57:27.229Z,36.00
2022-10-13T03:59:59.163Z,34.80
2022-10-13T04:05:03.083Z,33.60
2022-10-13T04:07:34.804Z,24.30
2022-10-13T04:10:12.146Z,33.60
2022-10-13T04:12:45.154Z,35.20
2022-10-13T04:15:17.694Z,38.00
2022-10-13T04:17:50.943Z,34.60
2022-10-13T04:20:24.211Z,34.20
2022-10-13T04:22:58.238Z,34.60
2022-10-13T04:25:29.928Z,33.20
2022-10-13T04:28:01.560Z,35.10
2022-10-13T04:30:35.995Z,35.90
2022-10-13T04:33:08.174Z,37.60
2022-10-13T04:35:43.938Z,26.50
2022-10-13T04:38:16.334Z,35.90
2022-10-13T04:40:50.341Z,38.90
2022-10-13T04:43:23.320Z,36.60
2022-10-13T04:46:00.877Z,34.90
2022-10-13T04:48:33.318Z,35.20
2022-10-13T04:51:08.091Z,38.30
2022-10-13T04:53:40.801Z,36.50
2022-10-13T04:56:17.329Z,36.10
2022-10-13T04:58:50.716Z,35.70
2022-10-13T05:01:25.390Z,35.90
2022-10-13T05:03:59.028Z,34.20
2022-10-13T05:06:32.890Z,35.20
2022-10-13T05:09:05.630Z,35.60
2022-10-13T05:14:08.405Z,34.10
2022-10-13T05:16:40.089Z,35.10
2022-10-13T05:19:12.153Z,36.00
2022-10-13T05:21:46.107Z,36.90
2022-10-13T05:24:17.898Z,33.80
2022-10-13T05:26:52.345Z,36.70
2022-10-13T05:29:24.294Z,36.10
2022-10-13T05:31:56.249Z,27.50
2022-10-13T05:34:27.950Z,36.70
2022-10-13T05:37:00.509Z,35.50
2022-10-13T05:39:32.929Z,35.80
2022-10-13T05:42:04.745Z,36.50
2022-10-13T05:44:39.691Z,36.40
2022-10-13T05:47:11.981Z,36.90
2022-10-13T05:49:44.063Z,36.50
2022-10-13T05:52:15.943Z,34.70
2022-10-13T05:54:53.373Z,36.70
2022-10-13T05:57:32.189Z,35.20
2022-10-13T06:00:09.091Z,34.80
2022-10-13T06:02:47.880Z,35.40
2022-10-13T06:05:22.824Z,34.10
2022-10-13T06:07:58.149Z,34.90
2022-10-13T06:10:30.149Z,35.40
2022-10-13T06:13:02.965Z,24.90
2022-10-13T06:15:34.732Z,36.70
2022-10-13T06:18:11.466Z,36.10
2022-10-13T06:20:43.944Z,36.90
2022-10-13T06:23:18.698Z,34.20
2022-10-13T06:25:52.157Z,36.70
2022-10-13T06:28:24.246Z,36.90
2022-10-13T06:30:57.239Z,36.40
2022-10-13T06:33:29.009Z,34.10
2022-10-13T06:36:04.062Z,24.50
2022-10-13T06:38:35.988Z,33.50
2022-10-13T06:41:08.500Z,35.20
2022-10-13T06:43:41.709Z,34.90
2022-10-13T06:46:15.967Z,34.70
2022-10-13T06:48:49.764Z,33.70
2022-10-13T06:51:21.813Z,34.30
2022-10-13T06:53:56.369Z,34.60
2022-10-13T06:56:31.808Z,31.80
2022-10-13T06:59:03.806Z,31.50
2022-10-13T07:01:41.353Z,32.20
2022-10-13T07:04:18.083Z,31.80
2022-10-13T07:06:50.888Z,31.10
2022-10-13T07:11:53.654Z,29.70
2022-10-13T07:14:25.660Z,29.00
2022-10-13T07:16:58.270Z,30.50
2022-10-13T07:19:30.272Z,30.20
2022-10-13T07:22:02.228Z,29.20
2022-10-13T07:24:34.279Z,29.70
2022-10-13T07:27:19.123Z,30.50
2022-10-13T07:29:51.226Z,30.30
2022-10-13T07:32:23.406Z,28.60
2022-10-13T07:34:56.379Z,30.90
2022-10-13T07:37:28.926Z,30.70
2022-10-13T07:40:01.136Z,30.60
2022-10-13T07:42:34.172Z,32.30
2022-10-13T07:45:06.828Z,28.90
2022-10-13T07:47:38.628Z,30.10
2022-10-13T07:50:11.855Z,27.50
2022-10-13T07:52:44.255Z,28.10
2022-10-13T07:55:17.994Z,29.10
2022-10-13T07:57:50.245Z,29.70
2022-10-13T08:00:22.305Z,27.00
2022-10-13T08:02:54.501Z,28.30
2022-10-13T08:05:26.464Z,29.40
2022-10-13T08:07:58.760Z,27.60
2022-10-13T08:10:31.159Z,27.90
2022-10-13T08:13:03.204Z,26.10
2022-10-13T08:15:34.875Z,18.70
2022-10-13T08:18:07.077Z,26.10
2022-10-13T08:20:43.910Z,25.90
2022-10-13T08:23:16.801Z,23.10
2022-10-13T08:30:29.217Z,23.30
2022-10-13T08:33:01.093Z,23.10
2022-10-13T08:35:34.772Z,21.50
2022-10-13T08:38:07.575Z,22.90
2022-10-13T08:40:40.338Z,19.90
2022-10-13T08:43:18.469Z,21.10
2022-10-13T08:45:52.334Z,20.80
2022-10-13T08:48:27.726Z,22.20
2022-10-13T08:51:02.162Z,18.70
2022-10-13T08:53:38.203Z,21.40
2022-10-13T08:56:16.451Z,18.50
2022-10-13T08:58:52.981Z,19.30
2022-10-13T09:01:29.032Z,20.00
2022-10-13T09:04:14.995Z,18.90
2022-10-13T09:06:55.895Z,18.90
2022-10-13T09:09:27.927Z,17.70
2022-10-13T09:12:01.618Z,19.30
2022-10-13T09:14:38.323Z,16.60
2022-10-13T09:17:18.871Z,16.40
2022-10-13T09:20:01.573Z,17.60
2022-10-13T09:22:38.380Z,15.80
2022-10-13T09:25:26.790Z,19.00
2022-10-13T09:28:01.778Z,17.50
2022-10-13T09:30:38.301Z,17.60
2022-10-13T09:33:27.677Z,17.50
2022-10-13T09:36:16.959Z,17.50
2022-10-13T09:39:09.660Z,16.70
2022-10-13T09:41:44.118Z,15.10
2022-10-13T09:44:18.079Z,16.30
2022-10-13T09:46:53.922Z,16.10
2022-10-13T09:49:35.676Z,16.20
2022-10-13T09:52:19.954Z,16.00
2022-10-13T09:54:54.029Z,15.90
2022-10-13T09:57:32.739Z,14.80
2022-10-13T10:00:13.965Z,15.20
2022-10-13T10:02:55.057Z,14.30
2022-10-13T10:05:39.251Z,14.40
2022-10-13T10:08:20.559Z,14.00
2022-10-13T10:10:55.112Z,15.70
2022-10-13T10:13:28.061Z,13.30
2022-10-13T10:16:08.755Z,14.30
2022-10-13T10:18:48.035Z,13.60
2022-10-13T10:21:32.441Z,12.60
2022-10-13T10:24:18.575Z,14.60
2022-10-13T10:26:56.437Z,14.30
2022-10-13T10:29:38.517Z,13.90
2022-10-13T10:32:34.454Z,14.00
2022-10-13T10:35:17.214Z,12.90
2022-10-13T10:38:02.831Z,14.30
2022-10-13T10:40:41.621Z,13.30
2022-10-13T10:43:27.729Z,12.90
2022-10-13T10:46:01.370Z,12.50
2022-10-13T10:48:39.868Z,12.20
2022-10-13T10:51:13.262Z,11.40
2022-10-13T10:53:55.781Z,10.90
2022-10-13T10:56:33.514Z,11.40
2022-10-13T10:59:26.790Z,11.30
2022-10-13T11:02:12.064Z,11.00
2022-10-13T11:04:45.589Z,11.10
2022-10-13T11:07:57.927Z,10.40
2022-10-13T11:10:32.107Z,10.30
2022-10-13T11:13:25.558Z,11.00
2022-10-13T11:16:21.133Z,9.80
2022-10-13T11:19:07.948Z,10.40
2022-10-13T11:22:19.095Z,12.90
2022-10-13T11:24:57.225Z,10.90
2022-10-13T11:27:40.707Z,12.50
2022-10-13T11:30:42.637Z,11.60
2022-10-13T11:33:53.985Z,10.30
2022-10-13T11:36:36.296Z,9.90
2022-10-13T11:39:36.925Z,10.40
2022-10-13T11:42:22.343Z,9.40
2022-10-13T11:44:58.332Z,10.70
2022-10-13T11:48:05.004Z,11.00
2022-10-13T11:50:44.214Z,10.90
2022-10-13T11:53:20.412Z,10.50
2022-10-13T11:55:55.458Z,11.40
2022-10-13T11:58:30.156Z,10.20
2022-10-13T12:01:04.417Z,11.20
2022-10-13T12:03:38.053Z,11.20
2022-10-13T12:06:33.198Z,9.90
2022-10-13T12:09:16.395Z,9.90
2022-10-13T12:11:57.043Z,10.70
2022-10-13T12:17:29.285Z,11.00
2022-10-13T12:20:21.323Z,10.60
2022-10-13T12:22:54.525Z,10.90
2022-10-13T12:25:27.937Z,10.40
2022-10-13T12:28:03.256Z,10.40
2022-10-13T12:30:37.032Z,11.10
2022-10-13T12:33:24.206Z,11.00
2022-10-13T12:35:56.257Z,10.90
2022-10-13T12:38:29.071Z,11.20
2022-10-13T12:41:01.649Z,10.90
2022-10-13T12:43:34.454Z,11.50
2022-10-13T12:46:09.327Z,10.40
2022-10-13T12:48:41.062Z,11.60
2022-10-13T12:51:23.658Z,11.00
2022-10-13T12:53:55.695Z,10.70
2022-10-13T12:56:32.222Z,9.80
2022-10-13T12:59:04.695Z,10.40
2022-10-13T13:01:37.982Z,10.70
2022-10-13T13:04:28.610Z,10.10
2022-10-13T13:07:02.360Z,10.20
2022-10-13T13:09:38.863Z,11.70
2022-10-13T13:12:27.415Z,11.20
2022-10-13T13:15:00.718Z,11.00
2022-10-13T13:20:29.794Z,10.40
2022-10-13T13:23:02.099Z,10.60
2022-10-13T13:25:33.764Z,9.60
2022-10-13T13:28:14.027Z,10.90
2022-10-13T13:30:46.418Z,9.80
2022-10-13T13:33:18.059Z,10.90
2022-10-13T13:35:51.166Z,10.40
2022-10-13T13:38:23.253Z,9.60
2022-10-13T13:40:54.805Z,10.10
2022-10-13T13:43:26.601Z,11.20
2022-10-13T13:45:58.529Z,11.90
2022-10-13T13:48:30.320Z,10.10
2022-10-13T13:51:03.250Z,10.90
2022-10-13T13:53:34.893Z,10.70
2022-10-13T13:56:12.602Z,10.50
2022-10-13T13:58:44.669Z,10.30
2022-10-13T14:01:17.311Z,10.70
2022-10-13T14:03:49.037Z,10.80
2022-10-13T14:06:22.998Z,11.30
2022-10-13T14:08:54.754Z,10.40
2022-10-13T14:11:26.478Z,10.50
2022-10-13T14:14:01.884Z,10.00
2022-10-13T14:16:33.840Z,9.70
2022-10-13T14:19:08.708Z,11.40
2022-10-13T14:21:40.416Z,10.40
2022-10-13T14:24:15.145Z,9.70
2022-10-13T14:26:46.967Z,11.80
2022-10-13T14:29:19.113Z,10.50
2022-10-13T14:31:51.767Z,11.60
2022-10-13T14:36:56.056Z,11.50
2022-10-13T14:39:28.616Z,11.00
2022-10-13T14:42:00.274Z,10.40
2022-10-13T14:44:32.049Z,11.20
2022-10-13T14:47:03.734Z,11.30
2022-10-13T14:49:35.606Z,11.50
2022-10-13T14:52:07.691Z,11.70
2022-10-13T14:54:43.890Z,12.30
2022-10-13T14:57:16.532Z,11.40
2022-10-13T14:59:48.549Z,12.00
2022-10-13T15:02:20.214Z,12.30
2022-10-13T15:04:58.965Z,11.20
2022-10-13T15:07:30.709Z,12.40
2022-10-13T15:10:06.331Z,11.80
2022-10-13T15:12:39.458Z,11.70
2022-10-13T15:15:12.406Z,11.20
2022-10-13T15:17:44.011Z,12.60
2022-10-13T15:20:15.826Z,10.80
2022-10-13T15:22:47.871Z,13.30
2022-10-13T15:27:50.119Z,12.50
2022-10-13T15:30:21.941Z,11.60
2022-10-13T15:32:53.850Z,12.90
2022-10-13T15:35:31.262Z,10.30
2022-10-13T15:38:03.852Z,12.30
2022-10-13T15:40:39.501Z,13.20
2022-10-13T15:43:11.338Z,13.50
2022-10-13T15:45:43.438Z,13.40
2022-10-13T15:48:15.956Z,13.80
2022-10-13T15:50:47.699Z,13.50
2022-10-13T15:53:19.708Z,14.90
2022-10-13T15:55:51.525Z,13.60
2022-10-13T15:58:23.015Z,13.10
2022-10-13T16:00:54.705Z,13.00
2022-10-13T16:03:29.730Z,13.30
2022-10-13T16:06:06.258Z,13.80
2022-10-13T16:08:39.651Z,13.30
2022-10-13T16:11:12.180Z,13.10
2022-10-13T16:13:46.588Z,12.70
2022-10-13T16:16:19.286Z,14.70
2022-10-13T16:18:51.800Z,14.60
2022-10-13T16:21:25.996Z,14.00
2022-10-13T16:23:59.893Z,15.30
2022-10-13T16:26:31.821Z,14.00
2022-10-13T16:29:03.737Z,13.40
2022-10-13T16:31:35.383Z,13.10
2022-10-13T16:34:08.032Z,13.60
2022-10-13T16:36:39.680Z,12.30
2022-10-13T16:39:11.305Z,13.30
2022-10-13T16:44:16.939Z,14.20
2022-10-13T16:46:49.748Z,14.90
2022-10-13T16:51:52.420Z,15.90
2022-10-13T16:54:24.137Z,16.30
2022-10-13T16:56:55.756Z,15.10
2022-10-13T16:59:28.923Z,15.00
2022-10-13T17:02:01.087Z,16.00
2022-10-13T17:04:32.849Z,16.20
2022-10-13T17:07:05.290Z,17.10
2022-10-13T17:09:37.297Z,17.10
2022-10-13T17:12:09.694Z,16.50
2022-10-13T17:14:41.715Z,17.30
2022-10-13T17:17:13.406Z,10.50
2022-10-13T17:19:45.194Z,19.50
2022-10-13T17:22:17.018Z,11.30
2022-10-13T17:24:49.288Z,17.00
2022-10-13T17:27:21.375Z,16.70
2022-10-13T17:29:55.148Z,16.80
2022-10-13T17:32:27.326Z,18.30
2022-10-13T17:34:58.970Z,17.70
2022-10-13T17:37:33.501Z,17.60
2022-10-13T17:40:05.878Z,18.20
2022-10-13T17:42:38.546Z,18.90
2022-10-13T17:47:47.896Z,20.30
2022-10-13T17:50:20.207Z,20.10
2022-10-13T17:52:54.191Z,21.00
2022-10-13T17:55:26.386Z,19.40
2022-10-13T17:57:57.915Z,21.70
2022-10-13T18:00:29.551Z,20.90
2022-10-13T18:03:01.208Z,19.20
2022-10-13T18:05:34.850Z,20.80
2022-10-13T18:08:07.286Z,20.50
2022-10-13T18:11:03.607Z,21.90
2022-10-13T18:13:32.215Z,23.20
2022-10-13T18:16:09.853Z,20.70
2022-10-13T18:18:41.927Z,21.70
2022-10-13T18:21:15.559Z,20.90
2022-10-13T18:23:49.999Z,20.20
2022-10-13T18:26:23.951Z,21.00
2022-10-13T18:28:58.252Z,21.40
2022-10-13T18:31:32.124Z,19.70
2022-10-13T18:34:06.234Z,20.20
2022-10-13T18:36:39.760Z,20.40
2022-10-13T18:39:15.936Z,20.30
2022-10-13T18:41:51.111Z,19.70
2022-10-13T18:44:24.947Z,20.50
2022-10-13T18:46:57.102Z,20.00
2022-10-13T18:49:33.944Z,20.00
2022-10-13T18:52:06.117Z,21.60
2022-10-13T18:54:41.330Z,21.80
2022-10-13T18:57:16.187Z,14.60
2022-10-13T18:59:49.208Z,21.70
2022-10-13T19:02:21.450Z,16.30
2022-10-13T19:04:53.202Z,20.40
2022-10-13T19:07:25.312Z,23.40
2022-10-13T19:09:57.702Z,21.60
2022-10-13T19:12:29.457Z,23.00
2022-10-13T19:15:01.490Z,22.90
2022-10-13T19:17:33.704Z,23.80
2022-10-13T19:20:06.629Z,23.30
2022-10-13T19:22:38.955Z,24.50
2022-10-13T19:25:12.507Z,25.70
2022-10-13T19:27:44.519Z,25.70
2022-10-13T19:30:17.631Z,24.70
2022-10-13T19:32:51.013Z,26.10
2022-10-13T19:35:22.957Z,25.10
2022-10-13T19:37:55.400Z,25.90
2022-10-13T19:40:29.911Z,28.80
2022-10-13T19:43:01.871Z,27.90
2022-10-13T19:45:38.418Z,26.00
2022-10-13T19:48:13.093Z,30.60
2022-10-13T19:50:47.169Z,29.30
2022-10-13T19:53:21.368Z,28.90
2022-10-13T19:58:23.734Z,27.60
2022-10-13T20:00:56.192Z,29.90
2022-10-13T20:03:28.102Z,27.60
2022-10-13T20:06:00.032Z,28.70
2022-10-13T20:08:32.085Z,30.50
2022-10-13T20:11:08.448Z,31.30
2022-10-13T20:13:40.358Z,30.80
2022-10-13T20:16:14.499Z,32.50
2022-10-13T20:18:46.708Z,31.00
2022-10-13T20:21:19.426Z,32.70
2022-10-13T20:26:21.942Z,33.70
2022-10-13T20:28:58.385Z,35.10
2022-10-13T20:31:30.489Z,33.40
2022-10-13T20:34:02.243Z,34.50
2022-10-13T20:36:38.864Z,35.20
2022-10-13T20:39:11.223Z,35.30
2022-10-13T20:41:43.788Z,34.70
2022-10-13T20:44:16.249Z,37.20
2022-10-13T20:46:48.116Z,36.50
2022-10-13T20:49:19.796Z,35.20
2022-10-13T20:51:51.462Z,37.00
2022-10-13T20:54:23.656Z,35.30
2022-10-13T20:56:57.858Z,36.70
2022-10-13T20:59:29.496Z,38.00
2022-10-13T21:02:01.149Z,36.90
2022-10-13T21:04:33.252Z,36.60
2022-10-13T21:07:05.183Z,38.40
2022-10-13T21:09:38.120Z,36.40
2022-10-13T21:12:10.089Z,34.40
2022-10-13T21:14:41.667Z,35.20
2022-10-13T21:19:45.689Z,36.60
2022-10-13T21:22:17.963Z,36.50
2022-10-13T21:24:50.373Z,35.40
2022-10-13T21:27:22.744Z,26.60
2022-10-13T21:29:54.586Z,38.40
2022-10-13T21:32:26.463Z,36.90
2022-10-13T21:34:58.088Z,37.90
2022-10-13T21:37:29.988Z,27.70
2022-10-13T21:40:04.550Z,38.00
2022-10-13T21:42:36.902Z,38.00
2022-10-13T21:45:10.636Z,36.60
2022-10-13T21:47:42.373Z,38.20
2022-10-13T21:50:14.286Z,38.10
2022-10-13T21:52:49.790Z,38.40
2022-10-13T21:55:21.534Z,38.60
2022-10-13T21:57:56.610Z,39.70
2022-10-13T22:02:59.419Z,36.90
2022-10-13T22:05:31.418Z,37.30
2022-10-13T22:08:03.219Z,39.90
2022-10-13T22:10:35.129Z,40.20
2022-10-13T22:13:07.162Z,41.70
2022-10-13T22:15:38.793Z,41.10
2022-10-13T22:18:10.725Z,41.30
2022-10-13T22:20:42.296Z,42.00
2022-10-13T22:23:13.818Z,40.10
2022-10-13T22:25:49.210Z,39.60
2022-10-13T22:28:21.583Z,39.90
2022-10-13T22:30:53.844Z,41.60
2022-10-13T22:33:25.432Z,41.90
2022-10-13T22:35:59.936Z,41.40
2022-10-13T22:38:31.778Z,44.00
2022-10-13T22:41:08.251Z,42.10
2022-10-13T22:43:39.963Z,39.70
2022-10-13T22:46:19.716Z,40.80
2022-10-13T22:48:51.751Z,41.20
2022-10-13T22:51:25.708Z,38.50
2022-10-13T22:53:58.484Z,42.50
2022-10-13T22:59:03.403Z,41.60
2022-10-13T23:01:35.737Z,42.60
2022-10-13T23:04:08.069Z,42.50
2022-10-13T23:06:39.657Z,28.10
2022-10-13T23:09:14.616Z,41.60
2022-10-13T23:11:46.378Z,42.10
2022-10-13T23:14:24.371Z,41.30
2022-10-13T23:16:56.284Z,42.10
2022-10-13T23:19:29.016Z,43.00
2022-10-13T23:22:01.014Z,43.50
2022-10-13T23:24:33.362Z,43.90
2022-10-13T23:27:05.303Z,41.60
2022-10-13T23:29:37.037Z,45.70
2022-10-13T23:32:10.039Z,44.40
2022-10-13T23:34:42.321Z,45.90
2022-10-13T23:37:15.058Z,44.40
2022-10-13T23:39:46.825Z,45.90
2022-10-13T23:42:19.834Z,43.90
2022-10-13T23:44:51.787Z,43.20
2022-10-13T23:47:23.818Z,45.40
2022-10-13T23:49:55.850Z,43.40
2022-10-13T23:52:27.810Z,43.70
2022-10-13T23:54:59.314Z,42.80
2022-10-13T23:57:33.355Z,43.30
